Time;durP1;ratioP1;P1;durP2;ratioP2;P2;SDS_P1;SDS_P2;PMS_P1;PMS_P2;Temp;Humidity;BMP_temperature;BMP_pressure;BME280_temperature;BME280_humidity;BME280_pressure;Samples;Min_cycle;Max_cycle;Signal;HPM_P1;HPM_P2
2023/03/22 00:00:57;;;;;;;10.63;6.50;;;;;;;12.48;71.96;100383.59;5067323;28;20206;-66
2023/03/22 00:03:25;;;;;;;9.50;6.07;;;;;;;12.58;71.13;100378.94;5070986;28;20219;-67
2023/03/22 00:05:58;;;;;;;11.43;6.00;;;;;;;12.49;70.58;100379.94;5072942;28;20292;-67
2023/03/22 00:08:26;;;;;;;9.00;5.60;;;;;;;12.39;71.31;100375.59;5072015;28;20242;-68
2023/03/22 00:10:53;;;;;;;8.60;6.10;;;;;;;12.47;71.12;100376.59;5070352;28;20207;-67
2023/03/22 00:13:21;;;;;;;8.50;6.00;;;;;;;12.44;71.03;100365.28;5068828;28;20682;-67
2023/03/22 00:15:49;;;;;;;9.80;5.63;;;;;;;12.47;70.86;100373.94;5067686;28;20237;-67
2023/03/22 00:18:17;;;;;;;8.87;6.07;;;;;;;12.48;71.16;100370.28;5068512;28;20215;-66
2023/03/22 00:20:49;;;;;;;8.77;5.63;;;;;;;12.54;70.67;100353.66;5068591;28;20734;-67
2023/03/22 00:23:18;;;;;;;8.30;6.03;;;;;;;12.50;70.81;100369.09;5068767;28;20207;-66
2023/03/22 00:25:47;;;;;;;8.53;5.93;;;;;;;12.47;70.87;100365.97;5069008;28;20213;-66
2023/03/22 00:28:16;;;;;;;10.77;5.57;;;;;;;12.41;71.12;100362.94;5070688;28;20211;-66
2023/03/22 00:30:50;;;;;;;9.50;5.80;;;;;;;12.39;71.08;100364.13;5072435;28;20222;-67
2023/03/22 00:33:18;;;;;;;11.27;5.67;;;;;;;12.45;70.72;100358.13;5069226;28;20215;-67
2023/03/22 00:35:49;;;;;;;9.10;5.70;;;;;;;12.41;70.85;100357.63;5070704;28;20213;-67
2023/03/22 00:38:18;;;;;;;7.87;5.43;;;;;;;12.50;70.61;100354.97;5068197;28;20322;-67
2023/03/22 00:40:48;;;;;;;9.80;5.47;;;;;;;12.56;70.41;100359.66;5071349;28;20249;-67
2023/03/22 00:43:16;;;;;;;8.07;5.50;;;;;;;12.61;70.06;100374.13;5072201;28;20210;-68
2023/03/22 00:45:44;;;;;;;7.50;5.10;;;;;;;12.71;70.08;100352.69;5073585;28;20210;-67
2023/03/22 00:48:12;;;;;;;10.70;5.77;;;;;;;12.75;70.15;100346.06;5074143;28;20226;-67
2023/03/22 00:50:40;;;;;;;8.47;5.63;;;;;;;12.79;71.08;100350.03;5073508;28;20240;-67
2023/03/22 00:53:08;;;;;;;7.03;4.67;;;;;;;12.78;71.30;100349.22;5072333;28;20228;-67
2023/03/22 00:55:37;;;;;;;8.50;5.67;;;;;;;12.69;71.86;100350.19;5071866;28;20217;-67
2023/03/22 00:58:04;;;;;;;8.23;5.60;;;;;;;12.71;71.97;100339.38;5069975;28;20234;-66
2023/03/22 01:00:32;;;;;;;8.50;5.47;;;;;;;12.65;72.93;100332.06;5070023;28;20330;-66
2023/03/22 01:03:02;;;;;;;9.67;6.03;;;;;;;12.64;73.15;100335.72;5072608;28;20318;-66
2023/03/22 01:05:32;;;;;;;10.93;6.70;;;;;;;12.69;72.79;100328.06;5070831;28;20716;-67
2023/03/22 01:08:01;;;;;;;11.50;6.23;;;;;;;12.70;72.84;100329.75;5069711;28;20231;-67
2023/03/22 01:10:29;;;;;;;7.83;5.67;;;;;;;12.68;72.56;100324.59;5070147;28;20217;-67
2023/03/22 01:12:58;;;;;;;8.50;5.53;;;;;;;12.74;71.96;100325.78;5070161;28;20207;-67
2023/03/22 01:15:26;;;;;;;10.07;6.53;;;;;;;12.71;70.83;100326.09;5071085;28;20338;-67
2023/03/22 01:17:54;;;;;;;10.63;5.90;;;;;;;12.58;70.70;100323.06;5066141;28;20235;-65
2023/03/22 01:20:21;;;;;;;9.40;5.87;;;;;;;12.50;72.02;100312.41;5064642;28;20211;-67
2023/03/22 01:22:49;;;;;;;9.17;5.67;;;;;;;12.59;72.06;100316.75;5067909;28;20773;-66
2023/03/22 01:25:17;;;;;;;9.13;5.87;;;;;;;12.62;71.12;100311.13;5065993;28;20227;-67
2023/03/22 01:27:45;;;;;;;10.07;5.90;;;;;;;12.67;70.42;100309.63;5069750;28;20225;-66
2023/03/22 01:30:15;;;;;;;10.13;5.53;;;;;;;12.59;70.48;100306.13;5068237;28;20206;-66
2023/03/22 01:32:42;;;;;;;8.93;5.90;;;;;;;12.53;70.46;100310.28;5067812;28;20729;-66
2023/03/22 01:35:10;;;;;;;10.87;6.17;;;;;;;12.52;70.40;100302.47;5068024;28;20686;-68
2023/03/22 01:37:38;;;;;;;9.90;5.50;;;;;;;12.43;70.86;100310.44;5063603;28;20239;-66
2023/03/22 01:40:07;;;;;;;11.37;6.23;;;;;;;12.33;71.36;100307.09;5067233;28;20214;-68
2023/03/22 01:42:35;;;;;;;10.60;5.67;;;;;;;12.20;72.32;100301.41;5066938;28;20207;-66
2023/03/22 01:45:36;;;;;;;7.80;5.57;;;;;;;12.20;72.31;100301.41;5066450;28;20587;-67
2023/03/22 01:48:09;;;;;;;8.40;5.13;;;;;;;12.30;71.95;100312.75;5065363;28;20215;-67
2023/03/22 01:50:41;;;;;;;8.57;5.20;;;;;;;12.32;71.43;100310.72;5065685;28;20215;-66
2023/03/22 01:53:12;;;;;;;6.07;4.50;;;;;;;12.34;71.26;100306.09;5068629;28;20206;-66
2023/03/22 01:55:41;;;;;;;9.73;5.20;;;;;;;12.32;71.48;100308.06;5070028;28;20218;-67
2023/03/22 01:58:09;;;;;;;9.07;5.33;;;;;;;12.34;71.35;100302.59;5067728;28;20696;-66
2023/03/22 02:00:38;;;;;;;10.63;4.67;;;;;;;12.37;71.10;100297.78;5069524;28;20223;-68
2023/03/22 02:03:06;;;;;;;9.67;5.10;;;;;;;12.30;71.47;100299.44;5066315;28;20217;-66
2023/03/22 02:05:35;;;;;;;7.63;4.90;;;;;;;12.17;71.90;100291.09;5065425;28;20206;-67
2023/03/22 02:08:04;;;;;;;6.90;4.60;;;;;;;12.10;72.30;100298.06;5065864;28;20291;-67
2023/03/22 02:10:32;;;;;;;7.40;4.37;;;;;;;12.15;72.56;100308.19;5067021;28;20215;-67
2023/03/22 02:13:26;;;;;;;8.77;5.37;;;;;;;12.21;72.82;100303.09;5070699;28;20218;-67
2023/03/22 02:16:08;;;;;;;8.27;4.50;;;;;;;12.33;72.40;100307.09;5071394;28;20734;-67
2023/03/22 02:18:48;;;;;;;9.90;5.20;;;;;;;12.42;71.47;100306.09;5072586;28;20222;-67
2023/03/22 02:21:38;;;;;;;7.60;4.10;;;;;;;12.40;71.68;100297.44;5068880;28;20214;-68
2023/03/22 02:24:44;;;;;;;7.07;4.27;;;;;;;12.40;71.61;100292.13;5070272;28;20554;-67
2023/03/22 02:27:38;;;;;;;7.80;4.60;;;;;;;12.38;71.71;100288.81;5072741;28;20240;-67
2023/03/22 02:30:23;;;;;;;7.53;4.50;;;;;;;12.38;71.95;100283.50;5070435;28;20218;-67
2023/03/22 02:33:30;;;;;;;10.00;4.70;;;;;;;12.45;71.71;100283.69;5070413;28;20211;-67
2023/03/22 02:36:21;;;;;;;8.30;4.67;;;;;;;12.48;71.28;100290.50;5067660;28;20213;-66
2023/03/22 02:39:11;;;;;;;8.27;4.60;;;;;;;12.44;71.48;100293.47;5075629;28;20260;-66
2023/03/22 02:42:03;;;;;;;7.60;4.23;;;;;;;12.47;72.26;100287.00;5074755;28;20207;-69
2023/03/22 02:44:40;;;;;;;7.33;5.00;;;;;;;12.51;72.04;100282.16;5073949;28;20204;-66
2023/03/22 02:47:15;;;;;;;6.57;4.30;;;;;;;12.58;71.52;100284.00;5072491;28;20293;-67
2023/03/22 02:49:50;;;;;;;8.60;4.80;;;;;;;12.66;71.05;100285.88;5075512;28;20967;-68
2023/03/22 02:52:25;;;;;;;8.33;5.23;;;;;;;12.61;70.92;100277.53;5074802;28;20576;-67
2023/03/22 02:55:01;;;;;;;7.10;4.53;;;;;;;12.56;71.29;100277.22;5074741;28;20207;-66
2023/03/22 02:57:33;;;;;;;8.07;4.63;;;;;;;12.55;71.26;100275.53;5073898;28;20222;-66
2023/03/22 03:00:06;;;;;;;7.83;4.30;;;;;;;12.47;71.15;100273.72;5072983;28;20204;-66
2023/03/22 03:02:35;;;;;;;7.53;4.53;;;;;;;12.48;71.79;100274.53;5074372;28;20202;-66
2023/03/22 03:05:03;;;;;;;6.80;4.70;;;;;;;12.42;71.47;100271.53;5074988;28;20221;-66
2023/03/22 03:07:31;;;;;;;8.80;4.30;;;;;;;12.41;71.39;100267.19;5071565;28;20222;-66
2023/03/22 03:10:00;;;;;;;10.80;4.90;;;;;;;12.35;71.78;100270.53;5070667;28;20239;-66
2023/03/22 03:12:29;;;;;;;8.43;4.50;;;;;;;12.34;71.87;100271.53;5073067;28;20637;-65
2023/03/22 03:14:57;;;;;;;7.80;4.63;;;;;;;12.37;71.82;100263.22;5071963;28;20636;-66
2023/03/22 03:17:47;;;;;;;6.60;4.60;;;;;;;12.30;71.80;100274.69;5071234;28;20231;-67
2023/03/22 03:20:28;;;;;;;7.60;5.07;;;;;;;12.29;71.93;100263.22;5068425;28;21148;-66
2023/03/22 03:23:14;;;;;;;7.03;4.20;;;;;;;12.25;72.53;100261.03;5070271;28;21229;-66
2023/03/22 03:25:48;;;;;;;7.47;4.50;;;;;;;12.30;72.35;100259.56;5067827;28;20607;-67
2023/03/22 03:28:29;;;;;;;9.67;5.30;;;;;;;12.24;72.15;100254.88;5070858;28;20209;-66
2023/03/22 03:31:00;;;;;;;8.63;5.50;;;;;;;12.12;72.87;100256.22;5070455;28;20260;-67
2023/03/22 03:33:33;;;;;;;10.33;4.97;;;;;;;12.09;73.03;100250.38;5072935;28;20626;-67
2023/03/22 03:36:05;;;;;;;8.07;4.93;;;;;;;12.09;72.70;100248.56;5071581;28;20226;-66
2023/03/22 03:38:36;;;;;;;7.13;4.40;;;;;;;12.03;73.26;100255.38;5069341;28;20245;-66
2023/03/22 03:41:09;;;;;;;7.47;4.97;;;;;;;11.97;73.40;100252.50;5067841;28;20221;-66
2023/03/22 03:43:39;;;;;;;8.00;4.90;;;;;;;11.89;73.82;100245.34;5069876;28;20205;-67
2023/03/22 03:46:08;;;;;;;11.37;5.73;;;;;;;11.91;73.73;100247.84;5068634;28;21127;-66
2023/03/22 03:48:38;;;;;;;8.53;5.50;;;;;;;11.86;73.79;100248.34;5068896;28;20958;-66
2023/03/22 03:51:06;;;;;;;11.50;4.80;;;;;;;11.80;73.89;100243.66;5070892;28;20210;-66
2023/03/22 03:53:34;;;;;;;8.83;5.70;;;;;;;11.73;74.39;100247.91;5072523;28;20215;-66
2023/03/22 03:56:02;;;;;;;7.07;4.77;;;;;;;11.66;74.82;100253.06;5069112;28;20214;-66
2023/03/22 03:58:31;;;;;;;9.27;4.37;;;;;;;11.56;75.10;100254.16;5072614;28;20236;-67
2023/03/22 04:00:59;;;;;;;9.50;4.77;;;;;;;11.53;75.50;100244.69;5072067;28;21103;-68
2023/03/22 04:03:26;;;;;;;9.33;5.83;;;;;;;11.49;75.70;100248.66;5070872;28;20216;-67
2023/03/22 04:05:54;;;;;;;9.93;5.00;;;;;;;11.46;76.13;100246.31;5070871;28;20210;-66
2023/03/22 04:08:22;;;;;;;10.80;6.10;;;;;;;11.46;75.74;100245.47;5072147;28;20244;-66
2023/03/22 04:10:50;;;;;;;10.43;5.00;;;;;;;11.48;75.87;100247.00;5072107;28;20275;-66
2023/03/22 04:13:20;;;;;;;7.00;5.17;;;;;;;11.56;75.52;100239.06;5070614;28;20304;-66
2023/03/22 04:15:52;;;;;;;8.80;5.23;;;;;;;11.61;75.06;100235.91;5069670;28;20278;-65
2023/03/22 04:18:20;;;;;;;9.47;5.33;;;;;;;11.56;75.05;100239.06;5066133;28;20221;-71
2023/03/22 04:20:52;;;;;;;7.90;5.30;;;;;;;11.58;75.14;100236.25;5068202;28;20212;-72
2023/03/22 04:23:21;;;;;;;8.33;5.10;;;;;;;11.48;75.50;100233.72;5077226;28;20212;-71
2023/03/22 04:25:49;;;;;;;8.87;5.73;;;;;;;11.42;76.03;100225.56;5074512;28;20315;-72
2023/03/22 04:28:18;;;;;;;9.53;5.33;;;;;;;11.49;75.88;100222.13;5066775;28;20252;-70
2023/03/22 04:30:49;;;;;;;7.37;5.00;;;;;;;11.53;75.57;100225.25;5071827;28;20338;-71
2023/03/22 04:33:21;;;;;;;7.63;4.83;;;;;;;11.63;74.79;100215.34;5072430;28;20210;-70
2023/03/22 04:35:55;;;;;;;9.83;5.27;;;;;;;11.53;75.10;100207.50;5071792;28;20298;-71
2023/03/22 04:38:24;;;;;;;8.50;5.43;;;;;;;11.47;75.55;100216.13;5061325;28;20245;-72
2023/03/22 04:40:51;;;;;;;13.10;5.30;;;;;;;11.48;75.52;100209.81;5076181;28;20744;-72
2023/03/22 04:43:21;;;;;;;9.60;5.33;;;;;;;11.44;75.64;100218.25;5072054;28;20232;-72
2023/03/22 04:45:49;;;;;;;7.90;5.13;;;;;;;11.35;76.13;100208.59;5071083;28;20299;-76
2023/03/22 04:48:20;;;;;;;7.87;4.80;;;;;;;11.38;76.25;100214.44;5071723;28;20264;-73
2023/03/22 04:50:52;;;;;;;9.40;5.43;;;;;;;11.36;76.22;100211.09;5073444;28;20796;-71
2023/03/22 04:53:25;;;;;;;10.03;4.90;;;;;;;11.37;75.79;100207.44;5076316;28;20212;-71
2023/03/22 04:55:55;;;;;;;8.67;5.37;;;;;;;11.36;75.40;100202.28;5080492;28;20200;-71
2023/03/22 04:58:23;;;;;;;8.53;5.30;;;;;;;11.32;75.58;100204.47;5086218;28;20237;-72
2023/03/22 05:00:52;;;;;;;9.67;5.20;;;;;;;11.24;75.70;100204.41;5077540;28;20215;-71
2023/03/22 05:03:22;;;;;;;12.03;5.80;;;;;;;11.17;76.23;100216.66;5077721;28;20217;-71
2023/03/22 05:05:51;;;;;;;8.97;5.10;;;;;;;11.10;76.55;100220.91;5080253;28;20208;-71
2023/03/22 05:08:20;;;;;;;9.23;5.03;;;;;;;11.11;76.60;100217.28;5083578;28;20225;-70
2023/03/22 05:10:47;;;;;;;8.60;5.03;;;;;;;11.09;76.47;100221.91;5078686;28;20207;-72
2023/03/22 05:13:15;;;;;;;9.47;5.53;;;;;;;11.12;76.31;100224.25;5071991;28;20238;-72
2023/03/22 05:15:43;;;;;;;8.47;5.00;;;;;;;11.11;76.26;100227.88;5079897;28;20203;-70
2023/03/22 05:18:13;;;;;;;7.93;5.47;;;;;;;11.08;76.34;100225.56;5077189;28;20216;-71
2023/03/22 05:20:42;;;;;;;10.73;5.23;;;;;;;11.04;76.34;100225.03;5076946;28;20233;-71
2023/03/22 05:23:10;;;;;;;10.53;5.50;;;;;;;10.96;76.53;100226.81;5081259;28;20221;-71
2023/03/22 05:25:38;;;;;;;9.67;5.50;;;;;;;10.90;77.05;100230.94;5078624;28;20219;-71
2023/03/22 05:28:06;;;;;;;13.50;6.30;;;;;;;10.92;76.43;100229.75;5076339;28;20214;-71
2023/03/22 05:30:33;;;;;;;9.40;5.63;;;;;;;10.92;76.71;100234.25;5078991;28;21948;-71
2023/03/22 05:33:03;;;;;;;12.77;6.17;;;;;;;10.89;76.60;100235.41;5077512;28;20208;-70
2023/03/22 05:35:33;;;;;;;11.27;6.07;;;;;;;10.88;76.31;100239.03;5077927;28;20863;-71
2023/03/22 05:38:03;;;;;;;8.57;5.27;;;;;;;10.90;75.96;100237.06;5076800;28;20240;-71
2023/03/22 05:40:31;;;;;;;9.73;5.93;;;;;;;11.00;75.86;100242.25;5080179;28;20230;-72
2023/03/22 05:42:58;;;;;;;9.00;5.60;;;;;;;11.02;75.86;100245.59;5079560;28;20664;-72
2023/03/22 05:45:26;;;;;;;11.20;5.70;;;;;;;11.02;76.17;100247.41;5079546;28;20310;-72
2023/03/22 05:47:54;;;;;;;11.43;6.00;;;;;;;11.06;75.81;100240.81;5079872;28;20215;-72
2023/03/22 05:50:23;;;;;;;9.80;5.30;;;;;;;11.15;75.01;100245.19;5078598;28;20213;-72
2023/03/22 05:52:52;;;;;;;8.20;5.43;;;;;;;11.14;74.98;100248.81;5076691;28;21218;-72
2023/03/22 05:55:22;;;;;;;8.07;5.60;;;;;;;11.20;74.75;100243.69;5079671;28;20217;-71
2023/03/22 05:57:51;;;;;;;10.13;5.80;;;;;;;11.23;74.16;100242.56;5075557;28;20221;-72
2023/03/22 06:00:20;;;;;;;10.13;5.93;;;;;;;11.18;73.93;100231.56;5078541;28;20240;-70
2023/03/22 06:02:51;;;;;;;9.03;5.73;;;;;;;11.07;74.53;100237.16;5082278;28;20817;-71
2023/03/22 06:05:19;;;;;;;9.97;5.60;;;;;;;10.97;74.97;100245.22;5074537;28;20206;-73
2023/03/22 06:07:47;;;;;;;11.93;5.70;;;;;;;11.02;74.64;100240.28;5082018;28;20279;-71
2023/03/22 06:10:16;;;;;;;11.23;5.70;;;;;;;10.96;74.68;100242.72;5084273;28;20243;-70
2023/03/22 06:12:45;;;;;;;10.23;5.50;;;;;;;10.80;75.38;100241.63;5085333;28;20281;-70
2023/03/22 06:15:13;;;;;;;12.53;5.90;;;;;;;10.71;75.84;100233.78;5086280;28;20210;-70
2023/03/22 06:17:41;;;;;;;11.13;6.23;;;;;;;10.69;76.44;100233.09;5088129;28;20256;-70
2023/03/22 06:20:12;;;;;;;12.77;6.10;;;;;;;10.70;76.13;100224.97;5081233;28;20234;-70
2023/03/22 06:22:40;;;;;;;12.93;6.53;;;;;;;10.66;76.29;100222.78;5083231;28;20219;-71
2023/03/22 06:25:09;;;;;;;13.57;6.33;;;;;;;10.61;76.43;100233.88;5084627;28;20243;-71
2023/03/22 06:27:38;;;;;;;10.10;5.90;;;;;;;10.60;76.73;100245.44;5083348;28;20272;-71
2023/03/22 06:30:09;;;;;;;13.63;6.20;;;;;;;10.57;76.92;100248.41;5085893;28;20215;-70
2023/03/22 06:32:36;;;;;;;9.83;6.13;;;;;;;10.59;76.85;100251.75;5082241;28;20211;-70
2023/03/22 06:35:05;;;;;;;10.03;5.80;;;;;;;10.63;76.78;100250.47;5084747;28;20243;-71
2023/03/22 06:37:33;;;;;;;10.37;5.87;;;;;;;10.63;76.71;100247.81;5082110;28;20234;-70
2023/03/22 06:40:01;;;;;;;11.53;5.83;;;;;;;10.63;76.96;100255.75;5081595;28;20230;-71
2023/03/22 06:42:29;;;;;;;12.07;6.73;;;;;;;10.67;76.88;100251.81;5088301;28;20307;-71
2023/03/22 06:44:57;;;;;;;11.13;6.50;;;;;;;10.69;76.83;100252.50;5081333;28;20678;-72
2023/03/22 06:47:26;;;;;;;12.17;6.30;;;;;;;10.75;76.79;100253.69;5075789;28;20227;-72
2023/03/22 06:49:54;;;;;;;10.50;6.17;;;;;;;10.77;76.58;100257.03;5078092;28;20207;-71
2023/03/22 06:52:22;;;;;;;11.63;5.70;;;;;;;10.84;76.12;100261.53;5076020;28;20215;-71
2023/03/22 06:54:50;;;;;;;9.33;5.43;;;;;;;10.91;76.04;100256.44;5079372;28;20218;-72
2023/03/22 06:57:18;;;;;;;11.70;6.23;;;;;;;11.08;75.71;100260.06;5077589;28;20565;-72
2023/03/22 06:59:45;;;;;;;10.23;5.87;;;;;;;11.15;75.19;100261.09;5074834;28;20253;-71
2023/03/22 07:02:13;;;;;;;8.87;5.60;;;;;;;11.16;75.25;100257.47;5076199;28;20203;-72
2023/03/22 07:04:43;;;;;;;13.63;5.73;;;;;;;11.20;75.31;100264.09;5077863;28;20311;-71
2023/03/22 07:07:11;;;;;;;15.83;5.80;;;;;;;11.24;75.07;100265.47;5076912;28;20235;-72
2023/03/22 07:09:39;;;;;;;11.63;6.07;;;;;;;11.38;74.62;100267.53;5077274;28;20203;-72
2023/03/22 07:12:07;;;;;;;7.77;5.50;;;;;;;11.42;74.39;100263.56;5076143;28;20297;-72
2023/03/22 07:14:35;;;;;;;10.07;5.57;;;;;;;11.43;74.35;100269.72;5079157;28;20215;-73
2023/03/22 07:17:03;;;;;;;10.20;5.23;;;;;;;11.52;74.38;100263.47;5076132;28;20212;-72
2023/03/22 07:19:31;;;;;;;9.83;5.17;;;;;;;11.53;74.01;100268.59;5076837;28;20271;-72
2023/03/22 07:22:00;;;;;;;11.53;5.77;;;;;;;11.66;74.06;100263.69;5075131;28;20216;-71
2023/03/22 07:24:28;;;;;;;11.60;5.90;;;;;;;11.75;73.80;100269.88;5074631;28;20269;-72
2023/03/22 07:26:56;;;;;;;9.13;5.20;;;;;;;11.93;73.11;100272.44;5075791;28;20214;-72
2023/03/22 07:29:23;;;;;;;8.87;5.40;;;;;;;12.17;72.11;100269.00;5078214;28;20205;-71
2023/03/22 07:31:51;;;;;;;10.07;5.87;;;;;;;12.24;71.91;100265.53;5075637;28;20219;-72
2023/03/22 07:34:19;;;;;;;10.30;5.83;;;;;;;12.25;71.86;100267.19;5075861;28;20712;-72
2023/03/22 07:36:47;;;;;;;12.63;5.93;;;;;;;12.42;71.73;100262.72;5074562;28;20620;-72
2023/03/22 07:39:16;;;;;;;10.80;6.13;;;;;;;12.50;71.71;100264.56;5076263;28;20241;-71
2023/03/22 07:41:44;;;;;;;11.27;5.63;;;;;;;12.61;71.21;100257.09;5074319;28;20244;-73
2023/03/22 07:44:12;;;;;;;12.83;6.00;;;;;;;12.73;70.99;100260.25;5077232;28;21029;-72
2023/03/22 07:46:45;;;;;;;7.33;5.60;;;;;;;12.74;70.85;100262.75;5077097;28;20238;-73
2023/03/22 07:49:14;;;;;;;6.60;5.00;;;;;;;12.79;71.01;100254.25;5075956;28;20235;-72
2023/03/22 07:51:42;;;;;;;7.93;5.13;;;;;;;12.91;70.76;100254.75;5078260;28;20230;-72
2023/03/22 07:54:10;;;;;;;10.57;5.10;;;;;;;13.05;70.58;100249.56;5076383;28;20242;-72
2023/03/22 07:56:46;;;;;;;11.77;5.10;;;;;;;13.14;69.90;100253.06;5073939;28;20234;-72
2023/03/22 07:59:15;;;;;;;6.90;4.67;;;;;;;13.30;69.98;100255.69;5071510;28;20222;-73
2023/03/22 08:01:43;;;;;;;9.10;5.43;;;;;;;13.47;69.27;100243.97;5075895;28;20242;-72
2023/03/22 08:04:11;;;;;;;8.70;5.33;;;;;;;13.60;68.88;100248.75;5074569;28;20212;-73
2023/03/22 08:06:41;;;;;;;11.63;5.20;;;;;;;13.62;69.34;100245.94;5075904;28;20215;-72
2023/03/22 08:09:09;;;;;;;10.37;4.90;;;;;;;13.82;68.93;100247.97;5074445;28;20228;-71
2023/03/22 08:11:37;;;;;;;9.67;4.53;;;;;;;13.99;68.78;100253.22;5075563;28;20199;-71
2023/03/22 08:14:06;;;;;;;14.03;5.23;;;;;;;14.11;68.25;100244.66;5072945;28;20329;-72
2023/03/22 08:16:34;;;;;;;7.43;4.43;;;;;;;14.40;66.63;100240.50;5076384;28;20217;-72
2023/03/22 08:19:02;;;;;;;7.37;3.93;;;;;;;14.44;65.92;100247.97;5076994;28;20215;-72
2023/03/22 08:21:30;;;;;;;9.50;4.50;;;;;;;14.61;65.41;100251.31;5074403;28;20723;-72
2023/03/22 08:23:58;;;;;;;9.33;4.93;;;;;;;14.87;65.45;100245.59;5074034;28;20265;-72
2023/03/22 08:26:26;;;;;;;6.80;4.70;;;;;;;15.30;64.32;100244.00;5072702;28;20210;-72
2023/03/22 08:28:53;;;;;;;10.60;4.57;;;;;;;15.60;63.21;100234.16;5074238;28;20220;-72
2023/03/22 08:31:23;;;;;;;7.07;4.03;;;;;;;16.50;60.89;100237.22;5074678;28;20257;-71
2023/03/22 08:33:50;;;;;;;8.17;4.17;;;;;;;18.42;53.87;100232.69;5073211;28;20265;-73
2023/03/22 08:36:21;;;;;;;8.70;3.07;;;;;;;19.24;50.47;100238.72;5072338;28;20212;-72
2023/03/22 08:38:49;;;;;;;7.53;1.50;;;;;;;19.18;48.00;100238.50;5073941;28;20241;-72
2023/03/22 08:41:17;;;;;;;4.70;0.90;;;;;;;18.77;47.43;100236.06;5074213;28;20730;-73
2023/03/22 08:43:44;;;;;;;3.47;1.17;;;;;;;18.17;49.32;100228.94;5075467;28;20730;-72
2023/03/22 08:46:12;;;;;;;3.43;1.10;;;;;;;17.71;49.39;100230.66;5075167;28;20603;-72
2023/03/22 08:48:49;;;;;;;3.20;1.00;;;;;;;17.22;50.81;100229.78;5077390;28;20790;-72
2023/03/22 08:51:17;;;;;;;2.47;0.80;;;;;;;16.58;52.66;100230.88;5075076;28;20784;-73
2023/03/22 08:53:46;;;;;;;1.70;0.80;;;;;;;16.35;52.69;100233.78;5072144;28;20220;-72
2023/03/22 08:56:15;;;;;;;1.80;0.77;;;;;;;16.22;53.25;100233.63;5072203;28;20960;-72
2023/03/22 08:58:45;;;;;;;2.57;0.90;;;;;;;16.28;53.13;100220.31;5071090;28;20207;-72
2023/03/22 09:01:13;;;;;;;6.03;1.47;;;;;;;16.34;53.62;100221.41;5072377;28;20235;-72
2023/03/22 09:03:43;;;;;;;3.63;1.00;;;;;;;16.48;53.19;100215.16;5074496;28;20207;-72
2023/03/22 09:06:11;;;;;;;3.13;1.20;;;;;;;16.98;52.81;100219.47;5074260;28;20214;-72
2023/03/22 09:08:40;;;;;;;3.33;1.07;;;;;;;17.00;52.41;100208.59;5075790;28;21059;-73
2023/03/22 09:11:09;;;;;;;4.40;1.10;;;;;;;17.82;51.73;100212.13;5073046;28;20207;-72
2023/03/22 09:13:37;;;;;;;5.13;1.57;;;;;;;18.59;49.64;100202.78;5072192;28;20227;-72
2023/03/22 09:16:08;;;;;;;3.17;1.50;;;;;;;18.87;47.76;100200.72;5074457;28;20207;-71
2023/03/22 09:18:36;;;;;;;12.43;7.83;;;;;;;20.82;44.34;100192.13;5072109;28;20215;-72
2023/03/22 09:21:07;;;;;;;3.73;1.57;;;;;;;21.38;42.07;100184.69;5074300;28;20237;-72
2023/03/22 09:23:36;;;;;;;5.67;1.47;;;;;;;22.55;41.16;100193.28;5071470;28;22368;-72
2023/03/22 09:26:10;;;;;;;4.50;1.80;;;;;;;24.07;38.67;100176.81;5072579;28;20588;-71
2023/03/22 09:28:38;;;;;;;5.17;1.87;;;;;;;25.37;35.44;100177.28;5074691;28;20210;-72
2023/03/22 09:31:09;;;;;;;4.25;1.20;;;;;;;25.29;34.65;100174.19;5075110;28;20967;-72
2023/03/22 09:33:40;;;;;;;2.28;1.20;;;;;;;23.56;36.89;100187.50;5073326;28;20203;-72
2023/03/22 09:36:10;;;;;;;5.25;1.40;;;;;;;22.44;38.98;100185.97;5075724;28;20207;-72
2023/03/22 09:38:40;;;;;;;4.18;1.80;;;;;;;21.65;41.10;100179.81;5060397;28;20326;-72
2023/03/22 09:41:14;;;;;;;5.57;1.80;;;;;;;21.10;42.29;100180.88;5074814;28;20266;-72
2023/03/22 09:43:46;;;;;;;3.60;1.00;;;;;;;20.43;43.58;100174.41;5074136;28;20209;-72
2023/03/22 09:46:17;;;;;;;3.70;1.23;;;;;;;20.47;43.56;100179.16;5074913;28;20247;-71
2023/03/22 09:48:47;;;;;;;3.80;1.40;;;;;;;20.76;43.13;100158.00;5074243;28;20268;-71
2023/03/22 09:51:29;;;;;;;3.33;1.33;;;;;;;20.24;43.23;100165.41;5077229;28;20259;-71
2023/03/22 09:53:57;;;;;;;2.53;1.20;;;;;;;19.50;44.30;100153.44;5073373;28;20617;-72
2023/03/22 09:56:27;;;;;;;2.20;1.00;;;;;;;19.85;43.69;100161.13;5074016;28;20272;-72
2023/03/22 09:59:04;;;;;;;3.00;0.87;;;;;;;20.86;41.53;100155.59;5075046;28;20210;-73
2023/03/22 10:01:41;;;;;;;3.30;1.47;;;;;;;22.39;38.66;100150.72;5075437;28;20240;-74
2023/03/22 10:04:31;;;;;;;3.83;1.60;;;;;;;23.77;36.35;100144.59;5074969;28;20214;-72
2023/03/22 10:07:10;;;;;;;3.28;1.00;;;;;;;23.56;35.89;100132.56;5075043;28;20321;-73
2023/03/22 10:09:49;;;;;;;2.28;0.90;;;;;;;23.47;35.86;100134.81;5075591;28;20216;-72
2023/03/22 10:12:25;;;;;;;4.18;0.90;;;;;;;25.30;33.18;100129.69;5073254;28;20209;-71
2023/03/22 10:15:03;;;;;;;1.98;0.70;;;;;;;27.34;30.20;100126.56;5075118;28;20213;-72
2023/03/22 10:17:32;;;;;;;2.58;0.70;;;;;;;27.79;30.05;100122.34;5072431;28;20301;-72
2023/03/22 10:20:04;;;;;;;2.45;0.80;;;;;;;28.49;28.65;100128.94;5072320;28;20214;-72
2023/03/22 10:22:38;;;;;;;2.05;0.80;;;;;;;29.92;26.78;100121.88;5071752;28;20258;-72
2023/03/22 10:25:08;;;;;;;1.10;0.60;;;;;;;31.06;25.40;100122.22;5073655;28;20194;-72
2023/03/22 10:27:37;;;;;;;3.13;0.77;;;;;;;33.38;23.28;100107.78;5072941;28;20267;-70
2023/03/22 10:30:18;;;;;;;2.25;0.77;;;;;;;34.47;21.73;100112.13;5074009;28;20213;-73
2023/03/22 10:32:51;;;;;;;1.23;0.90;;;;;;;34.61;21.75;100119.16;5073617;28;20246;-73
2023/03/22 10:35:24;;;;;;;2.92;1.00;;;;;;;33.85;21.56;100115.53;5075105;28;20214;-72
2023/03/22 10:37:57;;;;;;;3.63;1.38;;;;;;;33.09;22.62;100111.66;5072843;28;20928;-70
2023/03/22 10:40:28;;;;;;;3.97;0.82;;;;;;;32.48;23.00;100111.97;5074300;28;20238;-72
2023/03/22 10:43:02;;;;;;;2.53;0.98;;;;;;;32.83;22.42;100096.81;5073226;28;20215;-71
2023/03/22 10:45:46;;;;;;;1.13;0.60;;;;;;;31.28;24.16;100116.25;5075183;28;20655;-71
2023/03/22 10:48:22;;;;;;;2.45;0.82;;;;;;;30.38;24.41;100107.84;5074242;28;20322;-72
2023/03/22 10:50:54;;;;;;;2.05;0.70;;;;;;;30.84;24.92;100109.06;5070767;28;20298;-71
2023/03/22 10:53:33;;;;;;;4.70;0.90;;;;;;;29.86;25.07;100106.63;5074637;28;20208;-71
2023/03/22 10:56:00;;;;;;;2.60;0.82;;;;;;;29.96;25.34;100101.09;5073548;28;20203;-72
2023/03/22 10:58:30;;;;;;;2.17;0.60;;;;;;;29.28;25.51;100094.66;5071837;28;20664;-73
2023/03/22 11:01:00;;;;;;;3.38;1.00;;;;;;;27.08;28.38;100097.59;5079097;28;20205;-70
2023/03/22 11:03:30;;;;;;;3.15;0.82;;;;;;;26.28;29.35;100106.84;5079073;28;20240;-71
2023/03/22 11:06:05;;;;;;;0.93;0.50;;;;;;;25.29;31.14;100104.44;5078223;28;20296;-72
2023/03/22 11:08:41;;;;;;;3.08;0.60;;;;;;;24.01;32.44;100108.22;5077754;28;20245;-72
2023/03/22 11:11:16;;;;;;;1.17;0.80;;;;;;;23.85;33.11;100098.16;5078121;28;20206;-72
2023/03/22 11:13:50;;;;;;;1.85;0.60;;;;;;;25.88;30.14;100099.13;5078112;28;20227;-72
2023/03/22 11:16:19;;;;;;;1.35;0.60;;;;;;;27.44;28.35;100081.38;5075341;28;20234;-72
2023/03/22 11:18:47;;;;;;;1.30;0.70;;;;;;;29.10;26.88;100083.25;5075159;28;20208;-72
2023/03/22 11:21:16;;;;;;;1.05;0.50;;;;;;;29.97;25.62;100074.59;5076877;28;20272;-73
2023/03/22 11:23:53;;;;;;;1.42;0.70;;;;;;;31.86;23.10;100072.94;5076722;28;20234;-71
2023/03/22 11:26:32;;;;;;;2.13;0.73;;;;;;;33.67;21.44;100071.69;5075312;28;20307;-72
2023/03/22 11:29:11;;;;;;;1.83;0.73;;;;;;;34.55;20.76;100070.03;5077508;28;20261;-72
2023/03/22 11:31:53;;;;;;;2.20;0.70;;;;;;;35.06;20.14;100062.00;5077758;28;20211;-72
2023/03/22 11:34:25;;;;;;;1.15;0.70;;;;;;;32.79;22.00;100069.16;5076662;28;20215;-71
2023/03/22 11:36:57;;;;;;;3.15;0.85;;;;;;;33.05;21.61;100050.22;5079810;28;20221;-71
2023/03/22 11:39:28;;;;;;;0.90;0.60;;;;;;;33.55;20.78;100036.50;5075831;28;20239;-72
2023/03/22 11:42:02;;;;;;;1.40;0.70;;;;;;;34.75;20.29;100052.16;5077212;28;20854;-72